createdAt,value
2019-03-21T00:00:03.305Z,12.70
2019-03-21T00:02:32.580Z,12.65
2019-03-21T00:05:01.831Z,11.03
2019-03-21T00:07:31.433Z,13.53
2019-03-21T00:10:51.164Z,12.33
2019-03-21T00:13:20.316Z,9.78
2019-03-21T00:15:49.717Z,13.60
2019-03-21T00:18:19.501Z,12.35
2019-03-21T00:20:48.734Z,13.25
2019-03-21T00:23:17.965Z,10.08
2019-03-21T00:25:47.188Z,11.50
2019-03-21T00:28:16.702Z,7.97
2019-03-21T00:30:45.933Z,10.68
2019-03-21T00:33:15.152Z,11.88
2019-03-21T00:35:44.665Z,13.70
2019-03-21T00:38:13.801Z,12.88
2019-03-21T00:40:44.185Z,9.23
2019-03-21T00:43:13.937Z,10.43
2019-03-21T00:45:43.160Z,9.80
2019-03-21T00:48:14.126Z,9.28
2019-03-21T00:50:43.574Z,8.88
2019-03-21T00:53:12.729Z,11.53
2019-03-21T00:55:42.860Z,11.73
2019-03-21T00:58:12.397Z,9.03
2019-03-21T01:00:44.192Z,7.90
2019-03-21T01:03:14.382Z,9.98
2019-03-21T01:05:44.977Z,13.83
2019-03-21T01:08:14.418Z,10.58
2019-03-21T01:10:43.693Z,9.23
2019-03-21T01:13:13.474Z,14.07
2019-03-21T01:15:42.614Z,7.10
2019-03-21T01:18:11.766Z,8.78
2019-03-21T01:20:40.921Z,10.40
2019-03-21T01:23:10.160Z,10.25
2019-03-21T01:25:42.741Z,9.63
2019-03-21T01:28:11.952Z,7.42
2019-03-21T01:30:41.496Z,11.38
2019-03-21T01:33:10.645Z,8.58
2019-03-21T01:35:40.572Z,6.83
2019-03-21T01:38:09.738Z,9.10
2019-03-21T01:40:39.979Z,10.13
2019-03-21T01:43:09.579Z,9.98
2019-03-21T01:45:38.790Z,10.08
2019-03-21T01:48:08.005Z,8.00
2019-03-21T01:50:37.852Z,9.85
2019-03-21T01:53:07.377Z,9.88
2019-03-21T01:55:36.524Z,9.08
2019-03-21T01:58:05.799Z,9.00
2019-03-21T02:00:36.348Z,7.17
2019-03-21T02:03:05.889Z,8.08
2019-03-21T02:05:35.496Z,5.30
2019-03-21T02:08:04.940Z,9.05
2019-03-21T02:10:34.456Z,7.35
2019-03-21T02:13:03.618Z,6.22
2019-03-21T02:15:32.895Z,6.08
2019-03-21T02:18:02.112Z,7.85
2019-03-21T02:20:31.257Z,8.70
2019-03-21T02:23:00.801Z,7.47
2019-03-21T02:25:30.308Z,10.23
2019-03-21T02:28:00.019Z,8.43
2019-03-21T02:30:31.510Z,8.70
2019-03-21T02:33:07.057Z,7.05
2019-03-21T02:35:36.293Z,10.23
2019-03-21T02:38:05.616Z,10.20
2019-03-21T02:40:34.848Z,7.10
2019-03-21T02:43:04.052Z,7.03
2019-03-21T02:45:33.517Z,7.53
2019-03-21T02:48:02.666Z,9.00
2019-03-21T02:50:33.493Z,7.47
2019-03-21T02:53:02.889Z,8.75
2019-03-21T02:55:32.082Z,8.95
2019-03-21T02:58:01.314Z,8.53
2019-03-21T03:00:31.725Z,7.08
2019-03-21T03:03:01.154Z,9.10
2019-03-21T03:05:30.966Z,8.90
2019-03-21T03:08:00.240Z,8.28
2019-03-21T03:10:34.969Z,6.50
2019-03-21T03:13:04.101Z,7.47
2019-03-21T03:15:33.486Z,6.50
2019-03-21T03:18:03.362Z,6.00
2019-03-21T03:20:32.588Z,6.92
2019-03-21T03:23:01.810Z,5.15
2019-03-21T03:25:31.101Z,7.00
2019-03-21T03:28:03.757Z,6.92
2019-03-21T03:30:32.949Z,5.50
2019-03-21T03:33:02.154Z,5.87
2019-03-21T03:35:31.377Z,6.17
2019-03-21T03:38:00.592Z,6.90
2019-03-21T03:40:32.913Z,11.05
2019-03-21T03:43:02.138Z,7.30
2019-03-21T03:45:38.119Z,6.67
2019-03-21T03:48:04.286Z,7.97
2019-03-21T03:50:33.873Z,6.30
2019-03-21T03:53:03.072Z,5.83
2019-03-21T03:55:32.584Z,5.58
2019-03-21T03:58:02.923Z,6.62
2019-03-21T04:00:32.150Z,5.40
2019-03-21T04:03:01.288Z,9.50
2019-03-21T04:05:30.521Z,7.15
2019-03-21T04:07:59.716Z,6.25
2019-03-21T04:10:31.670Z,5.58
2019-03-21T04:13:01.484Z,6.30
2019-03-21T04:15:30.723Z,7.37
2019-03-21T04:17:59.955Z,6.55
2019-03-21T04:20:31.094Z,5.03
2019-03-21T04:23:00.842Z,5.72
2019-03-21T04:25:33.737Z,5.83
2019-03-21T04:28:02.889Z,5.92
2019-03-21T04:30:32.121Z,7.83
2019-03-21T04:33:01.612Z,5.83
2019-03-21T04:35:30.836Z,7.95
2019-03-21T04:37:59.977Z,4.47
2019-03-21T04:40:29.518Z,4.40
2019-03-21T04:42:59.296Z,4.53
2019-03-21T04:45:28.570Z,7.08
2019-03-21T04:47:57.734Z,6.92
2019-03-21T04:50:26.989Z,3.87
2019-03-21T04:52:56.128Z,6.17
2019-03-21T04:55:25.633Z,4.60
2019-03-21T04:57:54.761Z,4.45
2019-03-21T05:00:26.784Z,5.87
2019-03-21T05:02:58.343Z,4.20
2019-03-21T05:05:27.545Z,5.90
2019-03-21T05:07:56.732Z,4.47
2019-03-21T05:10:25.893Z,3.95
2019-03-21T05:12:55.324Z,4.22
2019-03-21T05:15:27.433Z,3.65
2019-03-21T05:17:58.869Z,6.62
2019-03-21T05:20:28.601Z,5.30
2019-03-21T05:22:58.032Z,6.17
2019-03-21T05:25:27.628Z,3.60
2019-03-21T05:27:57.081Z,8.70
2019-03-21T05:30:39.215Z,4.22
2019-03-21T05:33:08.482Z,5.30
2019-03-21T05:35:37.741Z,4.80
2019-03-21T05:38:07.287Z,7.05
2019-03-21T05:40:36.436Z,4.58
2019-03-21T05:43:09.068Z,4.80
2019-03-21T05:45:38.619Z,5.25
2019-03-21T05:48:07.825Z,4.80
2019-03-21T05:50:36.990Z,6.25
2019-03-21T05:53:06.160Z,7.40
2019-03-21T05:55:35.317Z,5.30
2019-03-21T05:58:04.457Z,4.50
2019-03-21T06:00:37.268Z,5.20
2019-03-21T06:03:09.281Z,18.27
2019-03-21T06:05:38.852Z,7.17
2019-03-21T06:08:34.316Z,9.85
2019-03-21T06:11:03.665Z,6.65
2019-03-21T06:13:32.877Z,3.17
2019-03-21T06:16:09.089Z,5.25
2019-03-21T06:19:21.205Z,4.03
2019-03-21T06:22:04.868Z,5.45
2019-03-21T06:25:15.888Z,6.55
2019-03-21T06:27:44.501Z,7.00
2019-03-21T06:30:13.736Z,6.25
2019-03-21T06:32:43.189Z,6.50
2019-03-21T06:35:22.649Z,6.85
2019-03-21T06:37:52.584Z,3.58
2019-03-21T06:40:21.797Z,5.40
2019-03-21T06:42:50.936Z,4.78
2019-03-21T06:45:20.280Z,3.20
2019-03-21T06:47:49.461Z,7.00
2019-03-21T06:50:18.628Z,3.90
2019-03-21T06:52:47.770Z,5.20
2019-03-21T06:55:17.257Z,6.65
2019-03-21T06:57:46.457Z,7.08
2019-03-21T07:00:15.617Z,5.37
2019-03-21T07:02:44.808Z,5.28
2019-03-21T07:05:14.350Z,6.55
2019-03-21T07:07:43.616Z,5.67
2019-03-21T07:10:13.031Z,5.25
2019-03-21T07:12:42.226Z,4.37
2019-03-21T07:15:12.161Z,4.62
2019-03-21T07:17:41.315Z,6.53
2019-03-21T07:20:11.421Z,6.22
2019-03-21T07:22:40.583Z,4.92
2019-03-21T07:25:10.016Z,2.62
2019-03-21T07:27:39.585Z,4.33
2019-03-21T07:30:10.758Z,4.70
2019-03-21T07:32:40.275Z,5.42
2019-03-21T07:35:09.692Z,6.72
2019-03-21T07:37:38.909Z,4.60
2019-03-21T07:40:09.692Z,6.73
2019-03-21T07:42:39.173Z,5.58
2019-03-21T07:45:08.421Z,4.95
2019-03-21T07:47:37.985Z,3.90
2019-03-21T07:50:07.933Z,4.33
2019-03-21T07:52:37.500Z,7.58
2019-03-21T07:55:07.584Z,6.33
2019-03-21T07:57:36.785Z,3.17
2019-03-21T08:00:08.537Z,23.98
2019-03-21T08:02:37.696Z,3.40
2019-03-21T08:05:07.495Z,9.10
2019-03-21T08:07:36.948Z,9.90
2019-03-21T08:10:07.138Z,13.43
2019-03-21T08:12:36.819Z,7.75
2019-03-21T08:15:06.945Z,7.78
2019-03-21T08:17:36.748Z,10.30
2019-03-21T08:20:07.516Z,13.83
2019-03-21T08:22:37.101Z,10.18
2019-03-21T08:25:07.488Z,9.00
2019-03-21T08:27:36.677Z,12.20
2019-03-21T08:30:06.993Z,8.60
2019-03-21T08:32:36.201Z,12.13
2019-03-21T08:35:06.322Z,5.40
2019-03-21T08:37:35.886Z,6.67
2019-03-21T08:40:06.424Z,5.30
2019-03-21T08:42:36.885Z,7.33
2019-03-21T08:45:06.196Z,9.08
2019-03-21T08:47:37.103Z,8.50
2019-03-21T08:50:06.729Z,7.62
2019-03-21T08:52:35.856Z,8.85
2019-03-21T08:55:05.377Z,4.55
2019-03-21T08:57:34.537Z,53.02
2019-03-21T09:00:04.008Z,38.38
2019-03-21T09:02:33.357Z,34.92
2019-03-21T09:05:02.892Z,68.50
2019-03-21T09:07:32.397Z,88.42
2019-03-21T09:10:01.728Z,182.45
2019-03-21T09:12:30.961Z,233.60
2019-03-21T09:15:00.607Z,149.70
2019-03-21T09:17:30.370Z,93.07
2019-03-21T09:19:59.924Z,110.30
2019-03-21T09:22:29.434Z,139.10
2019-03-21T09:24:58.965Z,241.45
2019-03-21T09:27:28.125Z,261.85
2019-03-21T09:29:57.339Z,227.57
2019-03-21T09:32:26.822Z,279.25
2019-03-21T09:34:56.140Z,246.32
2019-03-21T09:37:25.385Z,254.93
2019-03-21T09:39:54.936Z,203.05
2019-03-21T09:42:24.214Z,230.98
2019-03-21T09:44:53.750Z,227.03
2019-03-21T09:47:23.379Z,165.82
2019-03-21T09:49:52.680Z,182.85
2019-03-21T09:52:22.165Z,189.32
2019-03-21T09:54:51.409Z,152.87
2019-03-21T09:57:21.285Z,194.52
2019-03-21T09:59:51.142Z,165.47
2019-03-21T10:02:20.706Z,120.77
2019-03-21T10:04:50.041Z,142.82
2019-03-21T10:07:20.737Z,132.97
2019-03-21T10:09:50.241Z,101.50
2019-03-21T10:12:19.713Z,135.50
2019-03-21T10:14:49.321Z,114.50
2019-03-21T10:17:18.473Z,95.30
2019-03-21T10:19:48.545Z,116.77
2019-03-21T10:22:17.845Z,103.17
2019-03-21T10:24:46.980Z,127.55
2019-03-21T10:27:16.433Z,112.70
2019-03-21T10:29:45.972Z,120.57
2019-03-21T10:32:15.392Z,96.28
2019-03-21T10:34:45.053Z,99.87
2019-03-21T10:37:14.559Z,96.30
2019-03-21T10:39:44.330Z,75.00
2019-03-21T10:42:13.564Z,84.67
2019-03-21T10:44:43.053Z,69.50
2019-03-21T10:47:12.582Z,74.17
2019-03-21T10:49:42.088Z,86.45
2019-03-21T10:52:12.101Z,69.25
2019-03-21T10:54:41.265Z,65.75
2019-03-21T10:57:11.227Z,77.58
2019-03-21T10:59:40.730Z,83.58
2019-03-21T11:02:09.961Z,59.65
2019-03-21T11:04:39.200Z,60.52
2019-03-21T11:07:06.845Z,65.25
2019-03-21T11:09:36.343Z,65.95
2019-03-21T11:12:05.592Z,55.35
2019-03-21T11:14:34.808Z,58.40
2019-03-21T11:17:03.986Z,57.58
2019-03-21T11:19:33.197Z,62.88
2019-03-21T11:22:06.699Z,51.63
2019-03-21T11:24:33.584Z,52.15
2019-03-21T11:27:02.888Z,44.80
2019-03-21T11:29:32.434Z,44.58
2019-03-21T11:32:01.688Z,52.90
2019-03-21T11:34:30.825Z,61.58
2019-03-21T11:37:00.090Z,47.98
2019-03-21T11:39:29.293Z,51.40
2019-03-21T11:41:59.179Z,48.85
2019-03-21T11:44:28.454Z,45.05
2019-03-21T11:46:57.965Z,254.07
2019-03-21T11:49:27.426Z,88.33
2019-03-21T11:51:56.645Z,89.32
2019-03-21T11:54:26.161Z,77.32
2019-03-21T11:56:56.718Z,87.50
2019-03-21T11:59:41.230Z,65.35
2019-03-21T12:01:57.473Z,59.90
2019-03-21T12:04:26.681Z,59.93
2019-03-21T12:06:55.977Z,60.45
2019-03-21T12:09:25.344Z,56.60
2019-03-21T12:11:55.716Z,55.45
2019-03-21T12:14:25.012Z,44.80
2019-03-21T12:16:54.814Z,52.45
2019-03-21T12:19:25.258Z,53.15
2019-03-21T12:24:34.157Z,53.45
2019-03-21T12:27:03.600Z,42.70
2019-03-21T12:29:33.264Z,51.00
2019-03-21T12:32:06.163Z,39.50
2019-03-21T12:34:35.850Z,36.60
2019-03-21T12:37:05.482Z,29.92
2019-03-21T12:39:35.000Z,32.80
2019-03-21T12:42:04.440Z,36.75
2019-03-21T12:44:34.235Z,31.10
2019-03-21T12:47:03.420Z,38.15
2019-03-21T12:49:32.636Z,47.90
2019-03-21T12:52:01.776Z,40.58
2019-03-21T12:56:56.952Z,28.30
2019-03-21T12:59:26.517Z,40.33
2019-03-21T13:01:55.765Z,37.38
2019-03-21T13:04:24.925Z,32.13
2019-03-21T13:06:54.137Z,35.88
2019-03-21T13:09:23.361Z,33.53
2019-03-21T13:11:52.917Z,26.55
2019-03-21T13:14:22.178Z,37.53
2019-03-21T13:16:51.445Z,26.82
2019-03-21T13:19:20.881Z,22.55
2019-03-21T13:21:50.741Z,22.62
2019-03-21T13:24:19.989Z,22.58
2019-03-21T13:26:49.228Z,29.42
2019-03-21T13:29:18.841Z,26.52
2019-03-21T13:31:48.058Z,20.05
2019-03-21T13:34:17.372Z,27.22
2019-03-21T13:36:46.583Z,25.97
2019-03-21T13:39:16.153Z,21.25
2019-03-21T13:41:45.370Z,23.05
2019-03-21T13:44:14.953Z,22.55
2019-03-21T13:46:44.412Z,30.35
2019-03-21T13:49:13.609Z,45.73
2019-03-21T13:51:42.873Z,44.13
2019-03-21T13:54:12.108Z,42.38
2019-03-21T13:56:41.292Z,36.70
2019-03-21T13:59:10.443Z,38.48
2019-03-21T14:01:40.261Z,28.00
2019-03-21T14:04:09.773Z,25.60
2019-03-21T14:06:38.989Z,26.65
2019-03-21T14:09:08.570Z,32.48
2019-03-21T14:11:37.736Z,31.95
2019-03-21T14:14:06.945Z,26.73
2019-03-21T14:16:36.187Z,28.05
2019-03-21T14:19:05.696Z,25.30
2019-03-21T14:21:34.989Z,29.55
2019-03-21T14:24:04.595Z,23.42
2019-03-21T14:26:33.888Z,35.15
2019-03-21T14:29:12.165Z,26.75
2019-03-21T14:31:33.888Z,21.90
2019-03-21T14:34:03.429Z,30.05
2019-03-21T14:36:32.633Z,20.60
2019-03-21T14:39:02.093Z,21.00
2019-03-21T14:41:31.738Z,27.10
2019-03-21T14:44:01.206Z,27.37
2019-03-21T14:46:30.507Z,18.57
2019-03-21T14:48:59.710Z,20.15
2019-03-21T14:51:28.936Z,21.48
2019-03-21T14:53:58.165Z,20.27
2019-03-21T14:56:27.703Z,20.60
2019-03-21T14:58:56.892Z,27.22
2019-03-21T15:01:26.020Z,69.50
2019-03-21T15:03:55.488Z,73.20
2019-03-21T15:06:24.616Z,46.33
2019-03-21T15:08:54.048Z,65.00
2019-03-21T15:11:23.260Z,40.75
2019-03-21T15:13:52.422Z,40.28
2019-03-21T15:16:21.620Z,35.85
2019-03-21T15:18:51.169Z,31.37
2019-03-21T15:21:20.653Z,44.30
2019-03-21T15:23:58.805Z,37.23
2019-03-21T15:26:21.413Z,33.25
2019-03-21T15:28:50.913Z,25.40
2019-03-21T15:31:20.494Z,31.15
2019-03-21T15:33:49.836Z,27.13
2019-03-21T15:36:19.327Z,24.67
2019-03-21T15:38:48.682Z,21.50
2019-03-21T15:41:17.896Z,29.25
2019-03-21T15:43:47.033Z,18.25
2019-03-21T15:46:16.257Z,22.65
2019-03-21T15:48:45.749Z,24.05
2019-03-21T15:51:15.230Z,22.65
2019-03-21T15:53:54.642Z,16.73
2019-03-21T15:56:15.335Z,23.45
2019-03-21T15:58:44.580Z,21.37
2019-03-21T16:01:13.716Z,17.92
2019-03-21T16:03:42.940Z,20.43
2019-03-21T16:06:12.069Z,18.30
2019-03-21T16:08:41.299Z,15.15
2019-03-21T16:11:16.301Z,13.72
2019-03-21T16:13:45.465Z,25.62
2019-03-21T16:16:14.994Z,18.67
2019-03-21T16:18:44.121Z,22.02
2019-03-21T16:21:13.592Z,17.52
2019-03-21T16:23:42.729Z,16.40
2019-03-21T16:26:12.267Z,16.90
2019-03-21T16:28:41.497Z,15.60
2019-03-21T16:31:11.005Z,15.15
2019-03-21T16:33:43.238Z,13.90
2019-03-21T16:36:11.410Z,17.62
2019-03-21T16:38:40.609Z,11.93
2019-03-21T16:41:09.747Z,14.15
2019-03-21T16:43:39.349Z,21.90
2019-03-21T16:46:08.853Z,17.05
2019-03-21T16:48:38.004Z,18.45
2019-03-21T16:51:07.128Z,17.82
2019-03-21T16:53:36.280Z,13.98
2019-03-21T16:56:05.580Z,17.40
2019-03-21T16:58:34.924Z,15.05
2019-03-21T17:01:04.353Z,14.45
2019-03-21T17:03:33.840Z,13.45
2019-03-21T17:06:03.151Z,15.30
2019-03-21T17:08:32.405Z,15.10
2019-03-21T17:11:01.665Z,14.73
2019-03-21T17:13:30.867Z,10.25
2019-03-21T17:16:00.076Z,15.23
2019-03-21T17:18:29.870Z,14.33
2019-03-21T17:20:59.137Z,12.55
2019-03-21T17:23:28.316Z,12.68
2019-03-21T17:25:57.450Z,18.42
2019-03-21T17:28:26.588Z,13.55
2019-03-21T17:30:56.044Z,13.93
2019-03-21T17:33:25.195Z,17.02
2019-03-21T17:35:54.422Z,16.57
2019-03-21T17:38:23.965Z,10.30
2019-03-21T17:40:53.469Z,13.55
2019-03-21T17:43:22.974Z,15.45
2019-03-21T17:45:52.106Z,12.65
2019-03-21T17:48:21.677Z,12.47
2019-03-21T17:50:51.011Z,10.03
2019-03-21T17:53:20.145Z,10.53
2019-03-21T17:55:49.437Z,11.73
2019-03-21T17:58:18.596Z,12.95
2019-03-21T18:00:48.132Z,9.18
2019-03-21T18:03:17.286Z,10.03
2019-03-21T18:05:46.811Z,12.07
2019-03-21T18:08:16.008Z,10.50
2019-03-21T18:10:45.489Z,11.73
2019-03-21T18:13:14.765Z,9.55
2019-03-21T18:15:44.299Z,12.45
2019-03-21T18:18:13.836Z,7.75
2019-03-21T18:20:42.978Z,11.70
2019-03-21T18:23:12.202Z,10.70
2019-03-21T18:25:41.492Z,9.30
2019-03-21T18:28:10.643Z,10.03
2019-03-21T18:30:39.853Z,11.45
2019-03-21T18:33:08.981Z,13.55
2019-03-21T18:35:38.116Z,9.93
2019-03-21T18:38:07.268Z,9.13
2019-03-21T18:40:36.785Z,8.98
2019-03-21T18:43:06.394Z,10.35
2019-03-21T18:45:35.552Z,9.80
2019-03-21T18:48:04.713Z,9.73
2019-03-21T18:50:34.193Z,9.18
2019-03-21T18:53:03.753Z,8.58
2019-03-21T18:55:32.920Z,11.00
2019-03-21T18:58:02.077Z,7.92
2019-03-21T19:00:31.497Z,9.65
2019-03-21T19:03:00.910Z,8.18
2019-03-21T19:05:30.185Z,7.47
2019-03-21T19:07:59.589Z,7.17
2019-03-21T19:10:29.112Z,7.45
2019-03-21T19:12:58.645Z,12.88
2019-03-21T19:15:27.856Z,8.65
2019-03-21T19:17:56.976Z,7.95
2019-03-21T19:20:26.133Z,9.70
2019-03-21T19:22:55.349Z,8.55
2019-03-21T19:25:24.482Z,7.92
2019-03-21T19:27:53.689Z,8.15
2019-03-21T19:30:22.842Z,11.43
2019-03-21T19:32:52.358Z,8.78
2019-03-21T19:35:22.145Z,9.38
2019-03-21T19:37:51.616Z,6.85
2019-03-21T19:40:20.761Z,9.58
2019-03-21T19:42:50.081Z,7.33
2019-03-21T19:45:19.333Z,6.75
2019-03-21T19:47:48.565Z,8.13
2019-03-21T19:50:17.949Z,9.18
2019-03-21T19:52:47.085Z,7.10
2019-03-21T19:55:16.248Z,7.65
2019-03-21T19:57:45.481Z,7.55
2019-03-21T20:00:16.594Z,6.80
2019-03-21T20:02:46.170Z,7.33
2019-03-21T20:05:16.079Z,7.12
2019-03-21T20:07:45.214Z,7.45
2019-03-21T20:10:14.470Z,7.83
2019-03-21T20:12:43.986Z,6.95
2019-03-21T20:15:13.210Z,8.18
2019-03-21T20:17:42.440Z,8.80
2019-03-21T20:20:11.945Z,8.90
2019-03-21T20:22:41.084Z,7.70
2019-03-21T20:25:10.445Z,6.20
2019-03-21T20:27:39.929Z,7.35
2019-03-21T20:30:11.101Z,8.40
2019-03-21T20:32:40.238Z,6.20
2019-03-21T20:35:09.960Z,7.40
2019-03-21T20:37:39.092Z,6.47
2019-03-21T20:40:08.757Z,6.15
2019-03-21T20:42:37.886Z,7.42
2019-03-21T20:45:08.350Z,6.12
2019-03-21T20:47:37.885Z,8.68
2019-03-21T20:50:07.142Z,6.47
2019-03-21T20:52:36.308Z,6.67
2019-03-21T20:55:06.652Z,5.62
2019-03-21T20:57:35.826Z,8.83
2019-03-21T21:00:06.572Z,7.00
2019-03-21T21:02:35.780Z,7.15
2019-03-21T21:05:05.889Z,10.03
2019-03-21T21:07:35.033Z,5.17
2019-03-21T21:10:04.601Z,6.37
2019-03-21T21:12:33.720Z,6.33
2019-03-21T21:15:02.968Z,6.25
2019-03-21T21:17:32.125Z,8.35
2019-03-21T21:20:01.252Z,6.85
2019-03-21T21:22:30.392Z,5.97
2019-03-21T21:24:59.841Z,5.42
2019-03-21T21:27:28.998Z,6.97
2019-03-21T21:29:58.548Z,5.33
2019-03-21T21:32:27.765Z,5.80
2019-03-21T21:34:56.900Z,6.28
2019-03-21T21:37:26.757Z,5.83
2019-03-21T21:39:55.901Z,4.65
2019-03-21T21:42:25.433Z,7.33
2019-03-21T21:44:54.845Z,6.90
2019-03-21T21:47:24.053Z,5.83
2019-03-21T21:49:53.460Z,7.15
2019-03-21T21:52:22.624Z,5.25
2019-03-21T21:54:51.752Z,6.53
2019-03-21T21:57:20.913Z,7.03
2019-03-21T21:59:52.880Z,4.90
2019-03-21T22:02:21.150Z,4.33
2019-03-21T22:04:50.604Z,6.35
2019-03-21T22:07:19.816Z,5.90
2019-03-21T22:09:49.305Z,6.50
2019-03-21T22:12:18.573Z,7.87
2019-03-21T22:14:48.377Z,6.10
2019-03-21T22:17:17.599Z,7.12
2019-03-21T22:19:46.816Z,6.55
2019-03-21T22:22:15.969Z,3.98
2019-03-21T22:24:45.098Z,5.42
2019-03-21T22:27:14.262Z,4.33
2019-03-21T22:29:43.492Z,5.55
2019-03-21T22:32:12.965Z,5.15
2019-03-21T22:34:42.174Z,6.03
2019-03-21T22:37:11.717Z,5.72
2019-03-21T22:39:40.958Z,5.33
2019-03-21T22:42:10.186Z,4.85
2019-03-21T22:44:39.669Z,4.70
2019-03-21T22:47:09.177Z,5.22
2019-03-21T22:49:38.392Z,4.05
2019-03-21T22:52:07.985Z,9.70
2019-03-21T22:54:37.129Z,5.30
2019-03-21T22:57:06.296Z,4.55
2019-03-21T22:59:35.501Z,5.42
2019-03-21T23:02:05.223Z,4.87
2019-03-21T23:04:34.812Z,4.35
2019-03-21T23:07:04.299Z,4.22
2019-03-21T23:09:33.429Z,4.65
2019-03-21T23:12:02.893Z,5.30
2019-03-21T23:14:32.144Z,5.05
2019-03-21T23:17:01.394Z,5.20
2019-03-21T23:19:30.609Z,4.33
2019-03-21T23:21:59.757Z,4.53
2019-03-21T23:24:28.896Z,4.83
2019-03-21T23:26:58.391Z,3.85
2019-03-21T23:29:27.905Z,4.12
2019-03-21T23:31:57.514Z,6.50
2019-03-21T23:34:26.664Z,4.10
2019-03-21T23:36:55.832Z,4.53
2019-03-21T23:39:24.964Z,4.35
2019-03-21T23:41:54.128Z,5.15
2019-03-21T23:44:23.331Z,4.47
2019-03-21T23:46:52.493Z,4.83
2019-03-21T23:49:21.624Z,4.45
2019-03-21T23:51:50.790Z,4.42
2019-03-21T23:54:20.012Z,5.47
2019-03-21T23:56:49.287Z,5.30
2019-03-21T23:59:18.416Z,4.85
